createdAt,value
2022-10-03T00:02:44.129Z,7.86
2022-10-03T00:05:28.145Z,7.81
2022-10-03T00:08:13.427Z,7.80
2022-10-03T00:11:03.510Z,7.75
2022-10-03T00:13:51.934Z,7.70
2022-10-03T00:16:33.447Z,7.69
2022-10-03T00:19:25.699Z,7.63
2022-10-03T00:22:18.437Z,7.50
2022-10-03T00:24:59.682Z,7.35
2022-10-03T00:27:30.991Z,7.27
2022-10-03T00:30:16.679Z,7.21
2022-10-03T00:33:03.270Z,7.19
2022-10-03T00:35:43.542Z,7.14
2022-10-03T00:38:40.861Z,7.04
2022-10-03T00:41:13.233Z,7.02
2022-10-03T00:44:07.839Z,7.05
2022-10-03T00:47:08.524Z,6.91
2022-10-03T00:50:09.157Z,6.90
2022-10-03T00:53:12.517Z,6.96
2022-10-03T00:56:13.158Z,7.00
2022-10-03T00:59:16.534Z,7.00
2022-10-03T01:01:46.624Z,7.07
2022-10-03T01:04:23.177Z,7.18
2022-10-03T01:07:11.258Z,7.23
2022-10-03T01:09:46.787Z,7.26
2022-10-03T01:12:30.637Z,7.26
2022-10-03T01:15:22.911Z,7.31
2022-10-03T01:18:17.561Z,7.23
2022-10-03T01:20:50.707Z,7.18
2022-10-03T01:23:50.429Z,7.16
2022-10-03T01:26:48.202Z,7.11
2022-10-03T01:29:57.659Z,7.06
2022-10-03T01:33:09.242Z,7.04
2022-10-03T01:35:42.218Z,7.08
2022-10-03T01:38:35.523Z,7.12
2022-10-03T01:41:11.522Z,7.18
2022-10-03T01:43:47.594Z,7.16
2022-10-03T01:46:28.077Z,7.17
2022-10-03T01:49:32.328Z,7.08
2022-10-03T01:52:10.577Z,7.07
2022-10-03T01:54:50.739Z,6.95
2022-10-03T01:57:49.533Z,6.83
2022-10-03T02:00:18.979Z,6.75
2022-10-03T02:03:11.310Z,6.68
2022-10-03T02:05:57.726Z,6.60
2022-10-03T02:08:35.346Z,6.59
2022-10-03T02:11:08.379Z,6.59
2022-10-03T02:13:51.890Z,6.56
2022-10-03T02:16:21.322Z,6.54
2022-10-03T02:18:58.420Z,6.44
2022-10-03T02:21:29.630Z,6.37
2022-10-03T02:24:20.327Z,6.32
2022-10-03T02:27:07.597Z,6.26
2022-10-03T02:29:46.433Z,6.20
2022-10-03T02:32:31.570Z,6.08
2022-10-03T02:35:28.453Z,6.00
2022-10-03T02:38:13.309Z,6.01
2022-10-03T02:41:11.435Z,6.00
2022-10-03T02:43:53.793Z,5.99
2022-10-03T02:46:51.716Z,6.04
2022-10-03T02:49:53.452Z,6.09
2022-10-03T02:52:57.488Z,6.07
2022-10-03T02:55:36.298Z,6.01
2022-10-03T02:58:41.123Z,6.01
2022-10-03T03:01:19.812Z,6.02
2022-10-03T03:03:58.302Z,6.03
2022-10-03T03:07:02.397Z,6.04
2022-10-03T03:09:50.737Z,6.14
2022-10-03T03:12:41.414Z,6.26
2022-10-03T03:15:26.923Z,6.36
2022-10-03T03:18:30.878Z,6.48
2022-10-03T03:21:20.617Z,6.55
2022-10-03T03:24:11.913Z,6.63
2022-10-03T03:26:53.236Z,6.74
2022-10-03T03:29:28.746Z,6.80
2022-10-03T03:32:04.367Z,6.82
2022-10-03T03:34:33.837Z,6.87
2022-10-03T03:37:00.857Z,6.96
2022-10-03T03:39:33.167Z,7.07
2022-10-03T03:42:05.769Z,7.13
2022-10-03T03:44:44.531Z,7.22
2022-10-03T03:47:43.305Z,7.37
2022-10-03T03:50:27.592Z,7.49
2022-10-03T03:53:34.136Z,7.53
2022-10-03T03:56:06.547Z,7.60
2022-10-03T03:58:39.724Z,7.68
2022-10-03T04:01:06.266Z,7.67
2022-10-03T04:03:32.805Z,7.66
2022-10-03T04:06:12.820Z,7.70
2022-10-03T04:08:59.250Z,7.66
2022-10-03T04:11:41.702Z,7.72
2022-10-03T04:14:18.803Z,7.76
2022-10-03T04:17:36.837Z,7.86
2022-10-03T04:20:28.304Z,7.97
2022-10-03T04:23:24.792Z,7.98
2022-10-03T04:26:23.917Z,8.01
2022-10-03T04:29:12.029Z,8.07
2022-10-03T04:31:44.914Z,8.08
2022-10-03T04:34:41.327Z,8.10
2022-10-03T04:37:16.655Z,8.12
2022-10-03T04:39:52.227Z,8.11
2022-10-03T04:42:40.882Z,8.11
2022-10-03T04:45:30.890Z,8.14
2022-10-03T04:48:05.417Z,8.15
2022-10-03T04:50:44.350Z,8.17
2022-10-03T04:53:13.840Z,8.17
2022-10-03T04:55:47.727Z,8.20
2022-10-03T04:58:32.490Z,8.21
2022-10-03T05:01:15.153Z,8.14
2022-10-03T05:04:19.637Z,8.07
2022-10-03T05:06:59.024Z,8.09
2022-10-03T05:09:38.154Z,8.12
2022-10-03T05:12:10.701Z,8.14
2022-10-03T05:14:57.534Z,8.19
2022-10-03T05:18:00.552Z,8.19
2022-10-03T05:20:31.048Z,8.19
2022-10-03T05:23:13.028Z,8.20
2022-10-03T05:26:43.707Z,8.15
2022-10-03T05:29:10.658Z,8.22
2022-10-03T05:31:45.038Z,8.31
2022-10-03T05:34:33.151Z,8.40
2022-10-03T05:37:08.746Z,8.46
2022-10-03T05:40:05.083Z,8.47
2022-10-03T05:42:50.967Z,8.40
2022-10-03T05:45:30.355Z,8.47
2022-10-03T05:48:15.174Z,8.49
2022-10-03T05:51:11.830Z,8.49
2022-10-03T05:54:03.650Z,8.56
2022-10-03T05:56:48.272Z,8.62
2022-10-03T05:59:35.444Z,8.66
2022-10-03T06:02:21.032Z,8.74
2022-10-03T06:05:02.647Z,8.77
2022-10-03T06:07:30.624Z,8.82
2022-10-03T06:10:25.804Z,8.85
2022-10-03T06:13:04.375Z,8.84
2022-10-03T06:16:08.622Z,8.91
2022-10-03T06:18:35.199Z,8.97
2022-10-03T06:21:11.733Z,9.07
2022-10-03T06:23:57.697Z,9.20
2022-10-03T06:26:45.821Z,9.26
2022-10-03T06:29:49.569Z,9.35
2022-10-03T06:32:41.961Z,9.45
2022-10-03T06:35:11.631Z,9.56
2022-10-03T06:38:02.506Z,9.71
2022-10-03T06:40:34.856Z,9.69
2022-10-03T06:43:32.275Z,9.55
2022-10-03T06:46:17.032Z,9.47
2022-10-03T06:48:46.617Z,9.49
2022-10-03T06:51:39.067Z,9.59
2022-10-03T06:54:42.856Z,9.57
2022-10-03T06:57:35.717Z,9.65
2022-10-03T07:00:15.557Z,9.70
2022-10-03T07:03:19.607Z,9.86
2022-10-03T07:06:21.929Z,10.03
2022-10-03T07:09:25.407Z,10.27
2022-10-03T07:12:39.850Z,10.23
2022-10-03T07:15:43.589Z,10.09
2022-10-03T07:18:37.961Z,10.29
2022-10-03T07:21:21.313Z,10.36
2022-10-03T07:24:02.980Z,10.45
2022-10-03T07:26:57.800Z,10.41
2022-10-03T07:29:31.574Z,10.35
2022-10-03T07:32:22.392Z,10.36
2022-10-03T07:35:47.348Z,10.38
2022-10-03T07:38:58.285Z,10.50
2022-10-03T07:41:32.491Z,10.60
2022-10-03T07:44:33.474Z,10.57
2022-10-03T07:47:15.743Z,10.91
2022-10-03T07:50:01.394Z,11.02
2022-10-03T07:52:45.175Z,10.97
2022-10-03T07:55:51.609Z,10.97
2022-10-03T07:58:39.194Z,11.23
2022-10-03T08:01:11.729Z,11.43
2022-10-03T08:04:03.138Z,11.28
2022-10-03T08:06:50.254Z,11.23
2022-10-03T08:09:26.997Z,11.00
2022-10-03T08:12:26.184Z,10.82
2022-10-03T08:14:58.398Z,10.81
2022-10-03T08:17:59.964Z,10.84
2022-10-03T08:20:42.602Z,10.91
2022-10-03T08:23:21.299Z,11.04
2022-10-03T08:26:09.583Z,11.40
2022-10-03T08:29:08.836Z,11.59
2022-10-03T08:31:39.022Z,11.76
2022-10-03T08:34:20.933Z,11.84
2022-10-03T08:36:50.110Z,11.80
2022-10-03T08:39:42.107Z,11.72
2022-10-03T08:42:23.742Z,11.92
2022-10-03T08:45:19.484Z,12.25
2022-10-03T08:48:04.810Z,12.15
2022-10-03T08:50:50.091Z,11.93
2022-10-03T08:53:47.825Z,11.85
2022-10-03T08:56:23.453Z,12.01
2022-10-03T08:59:14.725Z,12.21
2022-10-03T09:02:35.598Z,12.15
2022-10-03T09:05:23.850Z,12.08
2022-10-03T09:08:15.145Z,12.11
2022-10-03T09:11:18.891Z,12.34
2022-10-03T09:14:22.939Z,12.36
2022-10-03T09:17:03.342Z,12.59
2022-10-03T09:20:03.861Z,12.73
2022-10-03T09:23:08.759Z,12.85
2022-10-03T09:25:35.285Z,12.85
2022-10-03T09:28:25.556Z,12.95
2022-10-03T09:31:19.699Z,13.02
2022-10-03T09:34:09.302Z,13.28
2022-10-03T09:37:14.510Z,13.52
2022-10-03T09:40:12.424Z,13.36
2022-10-03T09:42:57.661Z,13.12
2022-10-03T09:45:48.105Z,12.92
2022-10-03T09:48:39.845Z,12.88
2022-10-03T09:51:24.585Z,12.67
2022-10-03T09:54:18.952Z,12.59
2022-10-03T09:57:33.522Z,12.57
2022-10-03T10:00:15.683Z,12.68
2022-10-03T10:03:23.962Z,12.97
2022-10-03T10:06:11.501Z,13.24
2022-10-03T10:09:13.197Z,13.47
2022-10-03T10:11:42.511Z,13.59
2022-10-03T10:14:42.951Z,13.50
2022-10-03T10:17:31.193Z,13.13
2022-10-03T10:20:40.430Z,12.96
2022-10-03T10:23:28.562Z,12.79
2022-10-03T10:26:32.562Z,12.69
2022-10-03T10:29:34.270Z,12.75
2022-10-03T10:32:28.421Z,12.79
2022-10-03T10:35:26.963Z,12.82
2022-10-03T10:38:26.853Z,12.90
2022-10-03T10:41:38.174Z,12.89
2022-10-03T10:44:29.581Z,12.83
2022-10-03T10:46:56.150Z,12.88
2022-10-03T10:49:47.643Z,12.96
2022-10-03T10:53:12.302Z,13.02
2022-10-03T10:56:02.638Z,13.10
2022-10-03T10:58:34.920Z,13.32
2022-10-03T11:01:29.131Z,13.42
2022-10-03T11:04:23.557Z,13.42
2022-10-03T11:07:17.565Z,13.58
2022-10-03T11:09:47.494Z,13.77
2022-10-03T11:12:50.457Z,13.82
2022-10-03T11:16:18.969Z,13.83
2022-10-03T11:19:09.689Z,13.90
2022-10-03T11:21:59.611Z,14.02
2022-10-03T11:24:44.888Z,14.14
2022-10-03T11:27:41.545Z,14.23
2022-10-03T11:30:49.633Z,14.57
2022-10-03T11:33:41.150Z,14.41
2022-10-03T11:36:41.240Z,14.45
2022-10-03T11:39:18.291Z,14.14
2022-10-03T11:42:00.832Z,14.11
2022-10-03T11:44:32.361Z,13.95
2022-10-03T11:46:58.903Z,13.71
2022-10-03T11:49:38.524Z,13.52
2022-10-03T11:52:27.922Z,13.54
2022-10-03T11:55:03.311Z,13.51
2022-10-03T11:57:39.594Z,13.55
2022-10-03T12:00:21.341Z,13.50
2022-10-03T12:03:13.808Z,13.83
2022-10-03T12:06:34.680Z,14.21
2022-10-03T12:09:17.762Z,14.39
2022-10-03T12:11:58.211Z,14.48
2022-10-03T12:14:29.328Z,14.57
2022-10-03T12:17:12.265Z,14.58
2022-10-03T12:20:15.795Z,14.74
2022-10-03T12:22:53.208Z,14.62
2022-10-03T12:25:20.143Z,14.82
2022-10-03T12:28:25.700Z,15.02
2022-10-03T12:31:11.316Z,15.33
2022-10-03T12:33:49.842Z,15.02
2022-10-03T12:36:29.640Z,15.03
2022-10-03T12:39:19.224Z,15.04
2022-10-03T12:41:51.848Z,14.88
2022-10-03T12:44:46.182Z,14.69
2022-10-03T12:47:56.143Z,14.46
2022-10-03T12:50:44.499Z,14.51
2022-10-03T12:53:19.955Z,14.68
2022-10-03T12:56:11.323Z,14.73
2022-10-03T12:58:56.852Z,14.62
2022-10-03T13:01:49.824Z,14.63
2022-10-03T13:04:22.645Z,14.78
2022-10-03T13:07:09.512Z,14.68
2022-10-03T13:10:19.172Z,14.53
2022-10-03T13:13:06.009Z,14.29
2022-10-03T13:16:10.191Z,14.14
2022-10-03T13:18:45.392Z,13.99
2022-10-03T13:21:45.462Z,13.97
2022-10-03T13:24:32.735Z,13.82
2022-10-03T13:27:18.171Z,13.71
2022-10-03T13:29:49.497Z,13.79
2022-10-03T13:32:39.497Z,13.82
2022-10-03T13:35:35.617Z,13.86
2022-10-03T13:38:12.439Z,13.87
2022-10-03T13:40:48.617Z,13.89
2022-10-03T13:43:21.224Z,13.80
2022-10-03T13:45:51.360Z,13.88
2022-10-03T13:48:27.069Z,13.99
2022-10-03T13:51:02.112Z,14.14
2022-10-03T13:53:31.517Z,14.21
2022-10-03T13:56:06.143Z,14.12
2022-10-03T13:58:55.002Z,14.17
2022-10-03T14:01:27.917Z,14.11
2022-10-03T14:03:57.218Z,13.98
2022-10-03T14:06:37.904Z,13.92
2022-10-03T14:09:20.206Z,13.93
2022-10-03T14:11:59.987Z,14.08
2022-10-03T14:14:48.067Z,14.10
2022-10-03T14:17:41.907Z,14.22
2022-10-03T14:20:37.358Z,14.25
2022-10-03T14:23:28.250Z,14.52
2022-10-03T14:26:05.037Z,14.49
2022-10-03T14:28:47.916Z,14.42
2022-10-03T14:31:39.028Z,14.34
2022-10-03T14:34:37.572Z,14.13
2022-10-03T14:37:04.090Z,14.15
2022-10-03T14:39:40.942Z,14.19
2022-10-03T14:42:28.874Z,14.04
2022-10-03T14:45:12.567Z,13.90
2022-10-03T14:47:42.670Z,13.82
2022-10-03T14:50:21.316Z,13.54
2022-10-03T14:53:02.628Z,13.49
2022-10-03T14:55:39.768Z,13.62
2022-10-03T14:58:28.878Z,13.65
2022-10-03T15:01:12.444Z,13.54
2022-10-03T15:03:49.473Z,13.55
2022-10-03T15:06:39.999Z,13.58
2022-10-03T15:09:12.645Z,13.71
2022-10-03T15:11:48.645Z,13.81
2022-10-03T15:14:15.420Z,14.04
2022-10-03T15:16:51.719Z,14.59
2022-10-03T15:19:23.057Z,14.95
2022-10-03T15:21:53.287Z,14.93
2022-10-03T15:24:25.569Z,14.79
2022-10-03T15:26:58.993Z,14.53
2022-10-03T15:29:26.083Z,14.41
2022-10-03T15:31:55.808Z,14.29
2022-10-03T15:34:39.281Z,14.15
2022-10-03T15:37:15.490Z,14.05
2022-10-03T15:39:45.590Z,14.10
2022-10-03T15:42:18.171Z,14.61
2022-10-03T15:45:05.567Z,14.66
2022-10-03T15:47:36.734Z,14.33
2022-10-03T15:50:25.479Z,14.08
2022-10-03T15:53:04.641Z,14.01
2022-10-03T15:55:53.175Z,13.99
2022-10-03T15:58:28.682Z,13.86
2022-10-03T16:01:19.221Z,13.85
2022-10-03T16:03:50.097Z,13.66
2022-10-03T16:06:26.431Z,13.50
2022-10-03T16:09:01.263Z,13.36
2022-10-03T16:11:36.653Z,13.23
2022-10-03T16:14:15.810Z,13.08
2022-10-03T16:16:52.489Z,12.91
2022-10-03T16:19:40.123Z,12.82
2022-10-03T16:22:15.503Z,12.65
2022-10-03T16:24:45.999Z,12.51
2022-10-03T16:27:23.130Z,12.40
2022-10-03T16:30:16.006Z,12.26
2022-10-03T16:33:00.407Z,12.15
2022-10-03T16:35:37.328Z,12.03
2022-10-03T16:38:19.518Z,11.85
2022-10-03T16:41:00.305Z,11.71
2022-10-03T16:43:30.738Z,11.55
2022-10-03T16:46:00.391Z,11.46
2022-10-03T16:48:52.536Z,11.33
2022-10-03T16:51:27.278Z,11.14
2022-10-03T16:53:56.024Z,10.97
2022-10-03T16:56:28.971Z,10.76
2022-10-03T16:59:00.420Z,10.68
2022-10-03T17:01:32.661Z,10.54
2022-10-03T17:04:05.258Z,10.38
2022-10-03T17:06:35.842Z,10.28
2022-10-03T17:09:07.840Z,10.24
2022-10-03T17:11:38.231Z,10.17
2022-10-03T17:14:08.450Z,10.03
2022-10-03T17:16:51.015Z,9.94
2022-10-03T17:19:44.480Z,9.83
2022-10-03T17:22:21.470Z,9.76
2022-10-03T17:24:55.290Z,9.67
2022-10-03T17:27:32.090Z,9.59
2022-10-03T17:30:04.585Z,9.54
2022-10-03T17:32:40.014Z,9.54
2022-10-03T17:35:12.592Z,9.46
2022-10-03T17:37:56.303Z,9.42
2022-10-03T17:40:32.871Z,9.21
2022-10-03T17:43:09.249Z,9.07
2022-10-03T17:45:48.360Z,9.06
2022-10-03T17:48:27.893Z,8.88
2022-10-03T17:51:12.504Z,8.88
2022-10-03T17:53:46.918Z,8.73
2022-10-03T17:56:20.423Z,8.69
2022-10-03T17:58:56.314Z,8.67
2022-10-03T18:01:30.978Z,8.65
2022-10-03T18:04:04.919Z,8.58
2022-10-03T18:06:35.272Z,8.48
2022-10-03T18:09:14.100Z,8.43
2022-10-03T18:11:43.101Z,8.32
2022-10-03T18:14:19.739Z,8.37
2022-10-03T18:17:00.643Z,8.41
2022-10-03T18:19:30.040Z,8.43
2022-10-03T18:22:12.389Z,8.39
2022-10-03T18:24:41.998Z,8.40
2022-10-03T18:27:43.911Z,8.36
2022-10-03T18:30:19.368Z,8.27
2022-10-03T18:32:46.921Z,8.27
2022-10-03T18:35:22.230Z,8.23
2022-10-03T18:38:06.793Z,8.19
2022-10-03T18:40:49.053Z,8.11
2022-10-03T18:43:25.452Z,8.13
2022-10-03T18:46:00.404Z,8.04
2022-10-03T18:48:36.166Z,8.02
2022-10-03T18:51:12.196Z,8.01
2022-10-03T18:53:55.332Z,7.97
2022-10-03T18:56:24.986Z,7.85
2022-10-03T18:59:08.990Z,7.81
2022-10-03T19:01:52.049Z,7.84
2022-10-03T19:04:36.799Z,7.85
2022-10-03T19:07:29.746Z,7.80
2022-10-03T19:10:45.511Z,7.72
2022-10-03T19:13:34.888Z,7.69
2022-10-03T19:16:37.112Z,7.61
2022-10-03T19:19:25.691Z,7.61
2022-10-03T19:21:53.399Z,7.57
2022-10-03T19:24:39.830Z,7.56
2022-10-03T19:27:15.955Z,7.58
2022-10-03T19:29:50.456Z,7.68
2022-10-03T19:32:54.097Z,7.78
2022-10-03T19:35:22.135Z,7.73
2022-10-03T19:37:52.940Z,7.67
2022-10-03T19:40:44.505Z,7.66
2022-10-03T19:43:44.399Z,7.60
2022-10-03T19:46:23.373Z,7.69
2022-10-03T19:49:18.703Z,7.48
2022-10-03T19:51:46.330Z,7.54
2022-10-03T19:54:26.707Z,7.58
2022-10-03T19:56:54.813Z,7.43
2022-10-03T19:59:38.184Z,7.35
2022-10-03T20:02:06.942Z,7.27
2022-10-03T20:04:36.846Z,7.31
2022-10-03T20:07:50.163Z,7.27
2022-10-03T20:10:47.767Z,7.29
2022-10-03T20:13:15.300Z,7.30
2022-10-03T20:15:45.644Z,7.23
2022-10-03T20:18:23.754Z,7.18
2022-10-03T20:20:56.598Z,7.20
2022-10-03T20:23:28.482Z,7.13
2022-10-03T20:26:01.119Z,7.04
2022-10-03T20:28:33.240Z,7.00
2022-10-03T20:31:00.021Z,6.97
2022-10-03T20:33:29.711Z,6.83
2022-10-03T20:36:13.810Z,6.88
2022-10-03T20:38:48.310Z,6.88
2022-10-03T20:41:39.715Z,6.90
2022-10-03T20:44:17.882Z,6.97
2022-10-03T20:46:49.291Z,7.02
2022-10-03T20:49:48.519Z,6.98
2022-10-03T20:52:20.657Z,6.99
2022-10-03T20:54:50.377Z,6.98
2022-10-03T20:57:34.238Z,6.93
2022-10-03T21:00:19.675Z,6.86
2022-10-03T21:02:54.158Z,6.82
2022-10-03T21:05:25.701Z,6.76
2022-10-03T21:08:02.493Z,6.72
2022-10-03T21:10:33.728Z,6.68
2022-10-03T21:13:05.408Z,6.70
2022-10-03T21:15:59.718Z,6.75
2022-10-03T21:18:40.494Z,6.69
2022-10-03T21:21:23.539Z,6.60
2022-10-03T21:24:05.443Z,6.48
2022-10-03T21:26:38.507Z,6.45
2022-10-03T21:29:16.955Z,6.39
2022-10-03T21:31:57.452Z,6.26
2022-10-03T21:34:33.614Z,6.28
2022-10-03T21:37:17.187Z,6.30
2022-10-03T21:39:59.003Z,6.37
2022-10-03T21:42:31.175Z,6.38
2022-10-03T21:45:21.980Z,6.33
2022-10-03T21:47:58.719Z,6.19
2022-10-03T21:50:30.043Z,5.99
2022-10-03T21:53:04.892Z,6.02
2022-10-03T21:55:52.209Z,6.03
2022-10-03T21:58:44.266Z,6.05
2022-10-03T22:01:37.944Z,6.11
2022-10-03T22:04:17.672Z,6.15
2022-10-03T22:07:02.373Z,6.09
2022-10-03T22:09:29.050Z,6.00
2022-10-03T22:11:59.524Z,5.91
2022-10-03T22:14:43.008Z,5.92
2022-10-03T22:17:54.817Z,5.89
2022-10-03T22:20:33.049Z,5.75
2022-10-03T22:23:14.885Z,5.71
2022-10-03T22:26:28.801Z,5.72
2022-10-03T22:29:00.572Z,5.74
2022-10-03T22:31:38.425Z,5.73
2022-10-03T22:34:37.682Z,5.64
2022-10-03T22:37:04.491Z,5.67
2022-10-03T22:39:35.106Z,5.66
2022-10-03T22:42:03.930Z,5.58
2022-10-03T22:44:34.170Z,5.63
2022-10-03T22:47:08.280Z,5.63
2022-10-03T22:49:47.014Z,5.64
2022-10-03T22:52:27.205Z,5.66
2022-10-03T22:54:56.046Z,5.54
2022-10-03T22:57:24.187Z,5.55
2022-10-03T22:59:59.333Z,5.57
2022-10-03T23:02:30.335Z,5.43
2022-10-03T23:05:02.568Z,5.44
2022-10-03T23:07:46.549Z,5.60
2022-10-03T23:10:13.039Z,5.63
2022-10-03T23:12:44.965Z,5.63
2022-10-03T23:15:16.047Z,5.66
2022-10-03T23:17:48.730Z,5.61
2022-10-03T23:20:38.094Z,5.54
2022-10-03T23:23:31.390Z,5.53
2022-10-03T23:26:22.592Z,5.45
2022-10-03T23:29:02.479Z,5.33
2022-10-03T23:31:51.006Z,5.30
2022-10-03T23:34:32.579Z,5.30
2022-10-03T23:37:01.788Z,5.30
2022-10-03T23:39:34.461Z,5.35
2022-10-03T23:42:08.608Z,5.34
2022-10-03T23:45:00.717Z,5.34
2022-10-03T23:47:30.573Z,5.29
2022-10-03T23:49:57.295Z,5.20
2022-10-03T23:52:29.028Z,5.20
2022-10-03T23:55:00.858Z,5.10
2022-10-03T23:57:34.319Z,5.09
